Record high temperature 38.5°C Record low temperature -6.1°C Record high gust 94.9 km/h Record high average 70.9 km/h Record daily rain 58.2 mm Record low windchill -9.9°C Record high barometer 1045.9 hPa Record low barometer 985.2 hPa
Daily high pressure 1020.6 hPa Daily low pressure 1013.1 hPa Daily low windchill 13.2°C Daily high heat index 16.6°C Daily high gust speed 25.9 kmh ESE Daily high average speed 21.1 kmh E
Stazione meteo Crema centro
ULTIMO RILEVAMENTO ALLE ORE: 09:20 GIORNO: 08 Maggio 2021 prossimo aggiornamento ore: 09:25
Tempo presentePartly cloudy/Windy Temperatura attuale 15.0°C (59.0°F), temperatura apparente 11.4°C, Apparent temp solar 15.0°C
Temperatura massima (da mezzanotte)16.6°C alle ore: 00:00 Temperatura minima (da mezzanotte)13.2°C alle ore: 06:06
Forza media vento (dieci minuti)15.7 kmh (8.5 kts) Direzione vento (dieci minuti)E (94°)
Temperatura vento 15.0°C Massima forza (ultima ora)25.7 kmh (13.9 kts) alle ore: 08:57
Massima forza (da mezzanotte)25.9 kmh (14.0 kts) alle ore: 08:57 Massimo vento 1 minuto (da mezzanotte)21.1 kmh (11.4 kts) alle ore: 09:18
Pioggia (ultima ora)0.0 mm Pioggia (da mezzanotte)0.0 mm (0.00 in.)---
Pioggia Questo mese 27.9 mm (1.10 in.) Pioggia Questo anno 262.1 mm (10.32 in.)
Massima pioggia per minuto (ultima ora)0.0 mm/min Massima pioggia per ora (ultime 6 ore)0.0 mm/ore
Pioggia di ieri 0.0 mm DewPoint 6.8°C (Wet Bulb :11.0°C )
Umidita 58 %, Humidex 14.9°C Pressione S.L.M.1020.6 hPa (QNH 1020.6 hPa
Variazione pressione +0.4 hPa (ultima ora) Tendenza (ultime 1 ore)Stazionaria
Variazione pressione (ultime 12 ore)+10.2 hPa Variazione pressione (ultime 6 ore)+4.2 hPa
Current Solar 262 W/mē
Maximum solar (da mezzanotte) 362 W/mē Minimum solar (da mezzanotte)0 W/mē
Current 01:36 hours of sunshine today, current sky: Partly cloudy
Sunshine hours for the year: 564:25 hrs Sunshine hours for the month: 50:32 hrs
Current evapotranspiration rate 2.3 mm per day. Yesterday's reading 5.2

Questa pagina e` aggiornata con i dati della stazione meteo DAVIS VP Premere Reload o Refresh per facilitare la lettura dei dati aggiornati.

Status report of weather station: IK2CHZ - Crema meteo



Weather report/warning/Metars

Milano / Linate, Italy (LIML) 45-26N 009-17E 103M
May 08, 2021 - 02:50 AM EDT / 2021.05.08 0650 UTC
Wind: from the E (090 degrees) at 7 MPH (6 KT):0
Visibility: greater than 7 mile(s):0
Sky conditions: mostly cloudy
Temperature: 57 F (14 C)
Dew Point: 42 F (6 C)
Relative Humidity: 58%
Pressure (altimeter): 30.12 in. Hg (1020 hPa)
ob: LIML 080650Z 09006KT 9999 BKN035 14/06 Q1020 NOSIG
cycle: 7
Bergamo / Orio Al Serio, Italy (LIME) 45-40N 009-42E 237M
May 08, 2021 - 02:50 AM EDT / 2021.05.08 0650 UTC
Wind: Variable at 2 MPH (2 KT):0
Visibility: greater than 7 mile(s):0
Temperature: 59 F (15 C)
Dew Point: 33 F (1 C)
Relative Humidity: 38%
Pressure (altimeter): 30.12 in. Hg (1020 hPa)
ob: LIME 080650Z VRB02KT CAVOK 15/01 Q1020 NOSIG
cycle: 7
Piacenza, Italy (LIMS) 44-55N 009-44E 138M
May 08, 2021 - 02:55 AM EDT / 2021.05.08 0655 UTC
Wind: from the SE (130 degrees) at 8 MPH (7 KT) (direction variable):0
Visibility: greater than 7 mile(s):0
Sky conditions: mostly cloudy
Temperature: 55 F (13 C)
Dew Point: 55 F (13 C)
Relative Humidity: 100%
Pressure (altimeter): 30.09 in. Hg (1019 hPa)
ob: LIMS 080655Z 13007KT 090V180 9999 BKN020 13/13 Q1019
cycle: 7